Overseas Skopelos — V7SU9 — position and weather

sailwx.info

Track history (hours):
 
Tides and Currents Weather Stations Pressure Air Temp Water Temp Dewpoint Dewpoint Depression Visibility Wind Speed Wind Dir Waves Ship Positions

Overseas Skopelos

Last reported at 2016-Apr-17 04:25 UTC. Time now 2016-May-02 03:44 UTC.
Position S 30°53' W 048°34'.
Warning: this ship's position is 14 days out of date.

Length 183 m; draft 8.5 m.

Type: Tanker. MMSI: 538003726.

Date/timePositionNaut miles runAvg speedWind from/ knotsBaromVisibWave heightAir tempDewpointWater temp
2016-Apr-17 04:25S 30°53' W 048°34'2814.9
2016-Apr-17 02:33S 30°30' W 048°18'1614.7
2016-Apr-17 01:28S 30°16' W 048°09'5413.4
2016-Apr-16 21:27S 29°30' W 047°37'1314.0
2016-Apr-16 20:33S 29°18' W 047°29'1414.5
2016-Apr-16 19:33S 29°06' W 047°22'1714.7
2016-Apr-16 18:24S 28°51' W 047°12'1214.1
2016-Apr-16 17:33S 28°40' W 047°06'17711.6
2016-Apr-16 02:20S 25°44' W 046°57'911.4
2016-Apr-16 01:33S 25°39' W 047°05'  
2016-Apr-09 20:28S 25°33' W 046°43'1813.5
2016-Apr-09 19:07S 25°31' W 046°23'813.5
2016-Apr-09 18:33S 25°30' W 046°15'1413.3
2016-Apr-09 17:30S 25°29' W 045°59'1213.0
2016-Apr-09 16:32S 25°28' W 045°45'30013.4
2016-Apr-08 18:05S 23°33' W 040°40'914.6
2016-Apr-08 17:28S 23°28' W 040°32'  
Track history (hours):
 
Tides and Currents Weather Stations Pressure Air Temp Water Temp Dewpoint Dewpoint Depression Visibility Wind Speed Wind Dir Waves Ship Positions

Overseas Skopelos

Last reported at 2016-Apr-17 04:25 UTC. Time now 2016-May-02 03:44 UTC.
Position S 30°53' W 048°34'.
Warning: this ship's position is 14 days out of date.

Length 183 m; draft 8.5 m.

Type: Tanker. MMSI: 538003726.

Date/timePositionNaut miles runAvg speedWind from/ knotsBaromVisibWave heightAir tempDewpointWater temp
2016-Apr-17 04:25S 30°53' W 048°34'2814.9
2016-Apr-17 02:33S 30°30' W 048°18'1614.7
2016-Apr-17 01:28S 30°16' W 048°09'5413.4
2016-Apr-16 21:27S 29°30' W 047°37'1314.0
2016-Apr-16 20:33S 29°18' W 047°29'1414.5
2016-Apr-16 19:33S 29°06' W 047°22'1714.7
2016-Apr-16 18:24S 28°51' W 047°12'1214.1
2016-Apr-16 17:33S 28°40' W 047°06'17711.6
2016-Apr-16 02:20S 25°44' W 046°57'911.4
2016-Apr-16 01:33S 25°39' W 047°05'  
2016-Apr-09 20:28S 25°33' W 046°43'1813.5
2016-Apr-09 19:07S 25°31' W 046°23'813.5
2016-Apr-09 18:33S 25°30' W 046°15'1413.3
2016-Apr-09 17:30S 25°29' W 045°59'1213.0
2016-Apr-09 16:32S 25°28' W 045°45'30013.4
2016-Apr-08 18:05S 23°33' W 040°40'914.6
2016-Apr-08 17:28S 23°28' W 040°32'  

Dump ship's entire track history